sensor_id;sensor_type;location;lat;lon;timestamp;pressure;altitude;pressure_sealevel;temperature;humidity
51249;BME280;39642;47.556;18.728;2022-08-04T00:02:57;99724.84;;;26.32;35.86
51249;BME280;39642;47.556;18.728;2022-08-04T00:05:40;99711.50;;;26.32;35.86
51249;BME280;39642;47.556;18.728;2022-08-04T00:08:25;99707.16;;;26.31;35.88
51249;BME280;39642;47.556;18.728;2022-08-04T00:10:59;99714.31;;;26.30;35.86
51249;BME280;39642;47.556;18.728;2022-08-04T00:13:28;99723.16;;;26.31;35.87
51249;BME280;39642;47.556;18.728;2022-08-04T00:16:03;99720.63;;;26.29;35.94
51249;BME280;39642;47.556;18.728;2022-08-04T00:18:34;99719.66;;;26.30;35.89
51249;BME280;39642;47.556;18.728;2022-08-04T00:21:05;99725.94;;;26.29;35.88
51249;BME280;39642;47.556;18.728;2022-08-04T00:23:33;99720.63;;;26.29;35.88
51249;BME280;39642;47.556;18.728;2022-08-04T00:26:01;99732.28;;;26.28;35.93
51249;BME280;39642;47.556;18.728;2022-08-04T00:28:28;99726.09;;;26.28;35.92
51249;BME280;39642;47.556;18.728;2022-08-04T00:30:54;99727.78;;;26.29;35.94
51249;BME280;39642;47.556;18.728;2022-08-04T00:33:21;99726.94;;;26.28;35.93
51249;BME280;39642;47.556;18.728;2022-08-04T00:35:48;99725.13;;;26.29;35.96
51249;BME280;39642;47.556;18.728;2022-08-04T00:38:16;99726.94;;;26.28;35.99
51249;BME280;39642;47.556;18.728;2022-08-04T00:52:05;99738.59;;;26.27;36.01
51249;BME280;39642;47.556;18.728;2022-08-04T00:55:04;99738.59;;;26.27;36.00
51249;BME280;39642;47.556;18.728;2022-08-04T01:00:15;99742.25;;;26.26;35.95
51249;BME280;39642;47.556;18.728;2022-08-04T01:03:26;99739.56;;;26.26;35.93
51249;BME280;39642;47.556;18.728;2022-08-04T01:06:04;99744.91;;;26.26;35.90
51249;BME280;39642;47.556;18.728;2022-08-04T01:11:22;99737.03;;;26.25;35.77
51249;BME280;39642;47.556;18.728;2022-08-04T01:16:47;99745.03;;;26.25;35.68
51249;BME280;39642;47.556;18.728;2022-08-04T01:30:16;99740.69;;;26.24;35.57
51249;BME280;39642;47.556;18.728;2022-08-04T01:33:16;99744.31;;;26.23;35.60
51249;BME280;39642;47.556;18.728;2022-08-04T01:35:56;99744.31;;;26.23;35.54
51249;BME280;39642;47.556;18.728;2022-08-04T01:38:28;99736.28;;;26.23;35.54
51249;BME280;39642;47.556;18.728;2022-08-04T01:41:02;99737.16;;;26.23;35.51
51249;BME280;39642;47.556;18.728;2022-08-04T01:43:29;99734.50;;;26.23;35.50
51249;BME280;39642;47.556;18.728;2022-08-04T01:46:03;99738.12;;;26.22;35.49
51249;BME280;39642;47.556;18.728;2022-08-04T01:48:30;99737.28;;;26.22;35.56
51249;BME280;39642;47.556;18.728;2022-08-04T01:51:02;99735.47;;;26.22;35.61
51249;BME280;39642;47.556;18.728;2022-08-04T01:53:36;99733.78;;;26.21;35.63
51249;BME280;39642;47.556;18.728;2022-08-04T01:56:05;99732.91;;;26.21;35.63
51249;BME280;39642;47.556;18.728;2022-08-04T01:58:34;99732.78;;;26.22;35.67
51249;BME280;39642;47.556;18.728;2022-08-04T02:01:06;99727.44;;;26.22;35.69
51249;BME280;39642;47.556;18.728;2022-08-04T02:03:33;99727.44;;;26.22;35.71
51249;BME280;39642;47.556;18.728;2022-08-04T02:11:31;99727.44;;;26.22;35.80
51249;BME280;39642;47.556;18.728;2022-08-04T02:14:04;99728.44;;;26.21;35.82
51249;BME280;39642;47.556;18.728;2022-08-04T02:16:51;99732.91;;;26.21;35.86
51249;BME280;39642;47.556;18.728;2022-08-04T02:21:56;99730.22;;;26.21;36.02
51249;BME280;39642;47.556;18.728;2022-08-04T02:24:26;99716.06;;;26.20;35.99
51249;BME280;39642;47.556;18.728;2022-08-04T02:26:55;99717.88;;;26.20;36.04
51249;BME280;39642;47.556;18.728;2022-08-04T02:29:39;99717.88;;;26.20;36.09
51249;BME280;39642;47.556;18.728;2022-08-04T02:32:19;99724.91;;;26.21;36.18
51249;BME280;39642;47.556;18.728;2022-08-04T02:37:30;99717.03;;;26.19;36.25
51249;BME280;39642;47.556;18.728;2022-08-04T02:39:58;99723.22;;;26.20;36.27
51249;BME280;39642;47.556;18.728;2022-08-04T02:42:27;99711.72;;;26.19;36.32
51249;BME280;39642;47.556;18.728;2022-08-04T02:44:57;99717.88;;;26.20;36.36
51249;BME280;39642;47.556;18.728;2022-08-04T02:47:25;99721.38;;;26.20;36.41
51249;BME280;39642;47.556;18.728;2022-08-04T02:49:52;99716.88;;;26.21;36.46
51249;BME280;39642;47.556;18.728;2022-08-04T02:52:19;99721.38;;;26.20;36.48
51249;BME280;39642;47.556;18.728;2022-08-04T02:54:47;99711.56;;;26.21;36.51
51249;BME280;39642;47.556;18.728;2022-08-04T02:57:14;99714.22;;;26.21;36.55
51249;BME280;39642;47.556;18.728;2022-08-04T03:00:07;99716.06;;;26.20;36.61
51249;BME280;39642;47.556;18.728;2022-08-04T03:11:55;99726.84;;;26.18;36.85
51249;BME280;39642;47.556;18.728;2022-08-04T03:14:52;99718.00;;;26.18;36.92
51249;BME280;39642;47.556;18.728;2022-08-04T03:17:41;99722.50;;;26.17;36.95
51249;BME280;39642;47.556;18.728;2022-08-04T03:25:45;99720.81;;;26.16;37.08
51249;BME280;39642;47.556;18.728;2022-08-04T03:31:59;99725.16;;;26.17;37.16
51249;BME280;39642;47.556;18.728;2022-08-04T03:40:29;99720.81;;;26.16;37.31
51249;BME280;39642;47.556;18.728;2022-08-04T03:46:23;99734.16;;;26.16;37.36
51249;BME280;39642;47.556;18.728;2022-08-04T03:48:59;99730.50;;;26.17;37.42
51249;BME280;39642;47.556;18.728;2022-08-04T04:00:54;99737.66;;;26.17;37.57
51249;BME280;39642;47.556;18.728;2022-08-04T04:12:25;99736.84;;;26.16;37.72
51249;BME280;39642;47.556;18.728;2022-08-04T04:15:03;99737.78;;;26.15;37.73
51249;BME280;39642;47.556;18.728;2022-08-04T04:20:45;99739.50;;;26.16;37.80
51249;BME280;39642;47.556;18.728;2022-08-04T04:29:01;99740.34;;;26.17;37.91
51249;BME280;39642;47.556;18.728;2022-08-04T04:32:20;99740.34;;;26.17;37.93
51249;BME280;39642;47.556;18.728;2022-08-04T04:37:24;99741.19;;;26.17;37.98
51249;BME280;39642;47.556;18.728;2022-08-04T04:56:46;99750.75;;;26.20;38.17
51249;BME280;39642;47.556;18.728;2022-08-04T04:59:16;99755.13;;;26.21;38.24
51249;BME280;39642;47.556;18.728;2022-08-04T05:15:51;99762.88;;;26.24;38.35
51249;BME280;39642;47.556;18.728;2022-08-04T05:18:21;99760.09;;;26.26;38.35
51249;BME280;39642;47.556;18.728;2022-08-04T05:20:55;99760.94;;;26.26;38.35
51249;BME280;39642;47.556;18.728;2022-08-04T05:23:26;99769.78;;;26.27;38.36
51249;BME280;39642;47.556;18.728;2022-08-04T05:25:59;99770.63;;;26.27;38.35
51249;BME280;39642;47.556;18.728;2022-08-04T05:28:33;99775.00;;;26.28;38.34
51249;BME280;39642;47.556;18.728;2022-08-04T05:31:23;99778.38;;;26.30;38.35
51249;BME280;39642;47.556;18.728;2022-08-04T05:33:56;99774.72;;;26.31;38.35
51249;BME280;39642;47.556;18.728;2022-08-04T05:36:48;99774.72;;;26.31;38.35
51249;BME280;39642;47.556;18.728;2022-08-04T05:39:23;99778.38;;;26.30;38.41
51249;BME280;39642;47.556;18.728;2022-08-04T05:41:50;99777.50;;;26.30;38.44
51249;BME280;39642;47.556;18.728;2022-08-04T05:44:18;99773.88;;;26.31;38.44
51249;BME280;39642;47.556;18.728;2022-08-04T05:46:47;99776.44;;;26.32;38.43
51249;BME280;39642;47.556;18.728;2022-08-04T05:49:15;99784.28;;;26.34;38.40
51249;BME280;39642;47.556;18.728;2022-08-04T05:51:43;99780.78;;;26.33;38.42
51249;BME280;39642;47.556;18.728;2022-08-04T05:54:11;99793.19;;;26.34;38.39
51249;BME280;39642;47.556;18.728;2022-08-04T05:56:38;99785.16;;;26.34;38.39
51249;BME280;39642;47.556;18.728;2022-08-04T05:59:05;99788.78;;;26.33;38.40
51249;BME280;39642;47.556;18.728;2022-08-04T06:01:32;99786.97;;;26.34;38.43
51249;BME280;39642;47.556;18.728;2022-08-04T06:04:01;99784.28;;;26.34;38.42
51249;BME280;39642;47.556;18.728;2022-08-04T06:06:29;99794.97;;;26.34;38.43
51249;BME280;39642;47.556;18.728;2022-08-04T06:08:55;99788.69;;;26.35;38.41
51249;BME280;39642;47.556;18.728;2022-08-04T06:11:21;99783.34;;;26.35;38.39
51249;BME280;39642;47.556;18.728;2022-08-04T06:13:52;99783.19;;;26.36;38.37
51249;BME280;39642;47.556;18.728;2022-08-04T06:16:22;99783.19;;;26.36;38.36
51249;BME280;39642;47.556;18.728;2022-08-04T06:18:50;99790.25;;;26.37;38.36
51249;BME280;39642;47.556;18.728;2022-08-04T06:21:21;99790.25;;;26.37;38.36
51249;BME280;39642;47.556;18.728;2022-08-04T06:23:48;99786.59;;;26.38;38.30
51249;BME280;39642;47.556;18.728;2022-08-04T06:26:16;99776.78;;;26.39;38.37
51249;BME280;39642;47.556;18.728;2022-08-04T06:28:49;99782.94;;;26.40;38.32
51249;BME280;39642;47.556;18.728;2022-08-04T06:31:17;99789.13;;;26.40;38.33
51249;BME280;39642;47.556;18.728;2022-08-04T06:34:00;99782.81;;;26.41;38.33
51249;BME280;39642;47.556;18.728;2022-08-04T06:36:29;99786.34;;;26.42;38.34
51249;BME280;39642;47.556;18.728;2022-08-04T06:38:58;99786.34;;;26.42;38.34
51249;BME280;39642;47.556;18.728;2022-08-04T06:41:27;99786.19;;;26.43;38.32
51249;BME280;39642;47.556;18.728;2022-08-04T06:43:53;99780.72;;;26.45;38.30
51249;BME280;39642;47.556;18.728;2022-08-04T06:46:20;99788.63;;;26.46;38.27
51249;BME280;39642;47.556;18.728;2022-08-04T06:48:47;99785.81;;;26.48;38.23
51249;BME280;39642;47.556;18.728;2022-08-04T06:51:14;99786.69;;;26.48;38.24
51249;BME280;39642;47.556;18.728;2022-08-04T06:53:41;99792.03;;;26.48;38.21
51249;BME280;39642;47.556;18.728;2022-08-04T06:56:08;99785.69;;;26.49;38.18
51249;BME280;39642;47.556;18.728;2022-08-04T06:58:36;99784.72;;;26.50;38.17
51249;BME280;39642;47.556;18.728;2022-08-04T07:01:03;99781.91;;;26.52;38.15
51249;BME280;39642;47.556;18.728;2022-08-04T07:03:30;99788.97;;;26.53;38.12
51249;BME280;39642;47.556;18.728;2022-08-04T07:05:57;99786.28;;;26.53;38.08
51249;BME280;39642;47.556;18.728;2022-08-04T07:08:24;99794.41;;;26.51;39.12
51249;BME280;39642;47.556;18.728;2022-08-04T07:10:50;99783.75;;;26.51;38.57
51249;BME280;39642;47.556;18.728;2022-08-04T07:13:19;99793.31;;;26.54;38.56
51249;BME280;39642;47.556;18.728;2022-08-04T07:15:46;99794.16;;;26.54;38.88
51249;BME280;39642;47.556;18.728;2022-08-04T07:18:12;99793.44;;;26.52;39.26
51249;BME280;39642;47.556;18.728;2022-08-04T07:20:42;99787.25;;;26.52;39.60
51249;BME280;39642;47.556;18.728;2022-08-04T07:23:08;99791.75;;;26.51;39.30
51249;BME280;39642;47.556;18.728;2022-08-04T07:25:37;99791.75;;;26.51;39.33
51249;BME280;39642;47.556;18.728;2022-08-04T07:28:03;99786.41;;;26.51;38.84
51249;BME280;39642;47.556;18.728;2022-08-04T07:30:30;99788.09;;;26.52;38.68
51249;BME280;39642;47.556;18.728;2022-08-04T07:32:57;99789.81;;;26.53;39.01
51249;BME280;39642;47.556;18.728;2022-08-04T07:35:24;99787.25;;;26.52;38.58
51249;BME280;39642;47.556;18.728;2022-08-04T07:37:51;99788.81;;;26.54;38.70
51249;BME280;39642;47.556;18.728;2022-08-04T07:40:17;99782.53;;;26.55;38.68
51249;BME280;39642;47.556;18.728;2022-08-04T07:42:43;99784.22;;;26.56;38.58
51249;BME280;39642;47.556;18.728;2022-08-04T07:45:10;99777.94;;;26.57;38.58
51249;BME280;39642;47.556;18.728;2022-08-04T07:47:36;99776.09;;;26.58;38.59
51249;BME280;39642;47.556;18.728;2022-08-04T07:50:08;99781.31;;;26.60;38.85
51249;BME280;39642;47.556;18.728;2022-08-04T07:52:35;99777.66;;;26.61;38.65
51249;BME280;39642;47.556;18.728;2022-08-04T07:55:02;99774.03;;;26.62;38.91
51249;BME280;39642;47.556;18.728;2022-08-04T07:57:28;99770.38;;;26.63;39.04
51249;BME280;39642;47.556;18.728;2022-08-04T07:59:54;99774.72;;;26.64;38.91
51249;BME280;39642;47.556;18.728;2022-08-04T08:02:21;99760.41;;;26.65;38.57
51249;BME280;39642;47.556;18.728;2022-08-04T08:04:47;99764.75;;;26.66;38.51
51249;BME280;39642;47.556;18.728;2022-08-04T08:07:13;99761.84;;;26.69;38.25
51249;BME280;39642;47.556;18.728;2022-08-04T08:09:39;99756.50;;;26.69;38.39
51249;BME280;39642;47.556;18.728;2022-08-04T08:12:06;99761.56;;;26.72;38.24
51249;BME280;39642;47.556;18.728;2022-08-04T08:14:34;99764.13;;;26.73;38.09
51249;BME280;39642;47.556;18.728;2022-08-04T08:17:01;99767.50;;;26.75;37.94
51249;BME280;39642;47.556;18.728;2022-08-04T08:19:29;99767.81;;;26.82;37.10
51249;BME280;39642;47.556;18.728;2022-08-04T08:21:55;99767.16;;;26.90;36.79
51249;BME280;39642;47.556;18.728;2022-08-04T08:24:21;99766.75;;;26.94;36.77
51249;BME280;39642;47.556;18.728;2022-08-04T08:26:47;99770.03;;;26.98;36.34
51249;BME280;39642;47.556;18.728;2022-08-04T08:29:13;99762.56;;;27.02;36.92
51249;BME280;39642;47.556;18.728;2022-08-04T08:31:40;99767.91;;;27.02;36.94
51249;BME280;39642;47.556;18.728;2022-08-04T08:34:10;99766.25;;;27.00;36.29
51249;BME280;39642;47.556;18.728;2022-08-04T08:36:42;99765.72;;;27.07;36.11
51249;BME280;39642;47.556;18.728;2022-08-04T08:39:17;99776.31;;;27.18;35.54
51249;BME280;39642;47.556;18.728;2022-08-04T08:45:27;99774.56;;;27.28;35.79
51249;BME280;39642;47.556;18.728;2022-08-04T08:51:19;99783.81;;;27.24;37.25
51249;BME280;39642;47.556;18.728;2022-08-04T08:57:01;99776.06;;;27.21;37.08
51249;BME280;39642;47.556;18.728;2022-08-04T09:02:29;99772.16;;;27.25;36.37
51249;BME280;39642;47.556;18.728;2022-08-04T09:05:34;99773.19;;;27.34;35.50
51249;BME280;39642;47.556;18.728;2022-08-04T09:10:43;99768.41;;;27.37;36.32
51249;BME280;39642;47.556;18.728;2022-08-04T09:13:16;99774.97;;;27.33;36.73
51249;BME280;39642;47.556;18.728;2022-08-04T09:20:57;99767.13;;;27.32;36.81
51249;BME280;39642;47.556;18.728;2022-08-04T09:23:35;99768.69;;;27.34;36.51
51249;BME280;39642;47.556;18.728;2022-08-04T09:26:28;99773.91;;;27.36;36.21
51249;BME280;39642;47.556;18.728;2022-08-04T09:29:09;99765.00;;;27.35;36.55
51249;BME280;39642;47.556;18.728;2022-08-04T09:31:48;99766.28;;;27.31;36.90
51249;BME280;39642;47.556;18.728;2022-08-04T09:34:25;99763.97;;;27.27;36.50
51249;BME280;39642;47.556;18.728;2022-08-04T09:37:37;99770.44;;;27.24;36.85
51249;BME280;39642;47.556;18.728;2022-08-04T09:40:22;99765.25;;;27.23;36.94
51249;BME280;39642;47.556;18.728;2022-08-04T09:45:32;99764.37;;;27.22;37.22
51249;BME280;39642;47.556;18.728;2022-08-04T09:48:10;99762.72;;;27.21;37.28
51249;BME280;39642;47.556;18.728;2022-08-04T09:50:39;99760.28;;;27.18;37.17
51249;BME280;39642;47.556;18.728;2022-08-04T09:56:08;99749.44;;;27.19;37.35
51249;BME280;39642;47.556;18.728;2022-08-04T10:01:08;99738.19;;;27.16;37.48
51249;BME280;39642;47.556;18.728;2022-08-04T10:03:38;99749.13;;;27.13;37.52
51249;BME280;39642;47.556;18.728;2022-08-04T10:06:35;99740.38;;;27.11;37.57
51249;BME280;39642;47.556;18.728;2022-08-04T10:14:39;99728.03;;;27.10;37.59
51249;BME280;39642;47.556;18.728;2022-08-04T10:25:33;99725.22;;;27.11;38.11
51249;BME280;39642;47.556;18.728;2022-08-04T10:28:10;99725.06;;;27.13;37.81
51249;BME280;39642;47.556;18.728;2022-08-04T10:30:40;99726.78;;;27.14;37.97
51249;BME280;39642;47.556;18.728;2022-08-04T10:33:26;99720.19;;;27.18;37.76
51249;BME280;39642;47.556;18.728;2022-08-04T10:36:15;99726.97;;;27.22;37.61
51249;BME280;39642;47.556;18.728;2022-08-04T10:38:58;99727.13;;;27.20;37.41
51249;BME280;39642;47.556;18.728;2022-08-04T10:41:39;99727.34;;;27.17;37.43
51249;BME280;39642;47.556;18.728;2022-08-04T10:44:39;99719.59;;;27.14;37.50
51249;BME280;39642;47.556;18.728;2022-08-04T10:47:15;99720.72;;;27.12;37.53
51249;BME280;39642;47.556;18.728;2022-08-04T10:49:54;99714.66;;;27.10;37.57
51249;BME280;39642;47.556;18.728;2022-08-04T10:52:50;99707.75;;;27.07;37.61
51249;BME280;39642;47.556;18.728;2022-08-04T10:55:30;99707.88;;;27.06;37.62
51249;BME280;39642;47.556;18.728;2022-08-04T10:58:00;99700.00;;;27.04;37.65
51249;BME280;39642;47.556;18.728;2022-08-04T11:00:28;99704.50;;;27.04;37.89
51249;BME280;39642;47.556;18.728;2022-08-04T11:03:10;99699.16;;;27.04;38.19
51249;BME280;39642;47.556;18.728;2022-08-04T11:05:53;99703.37;;;27.06;38.21
51249;BME280;39642;47.556;18.728;2022-08-04T11:08:28;99697.63;;;27.11;37.94
51249;BME280;39642;47.556;18.728;2022-08-04T11:11:40;99698.09;;;27.16;37.79
51249;BME280;39642;47.556;18.728;2022-08-04T11:14:10;99702.50;;;27.27;37.13
51249;BME280;39642;47.556;18.728;2022-08-04T11:16:46;99706.91;;;27.37;36.75
51249;BME280;39642;47.556;18.728;2022-08-04T11:22:25;99696.19;;;27.37;36.94
51249;BME280;39642;47.556;18.728;2022-08-04T11:25:06;99701.13;;;27.32;36.75
51249;BME280;39642;47.556;18.728;2022-08-04T11:30:18;99701.41;;;27.29;36.87
51249;BME280;39642;47.556;18.728;2022-08-04T11:33:18;99690.97;;;27.26;37.22
51249;BME280;39642;47.556;18.728;2022-08-04T11:35:56;99696.72;;;27.22;37.34
51249;BME280;39642;47.556;18.728;2022-08-04T11:41:18;99688.50;;;27.13;37.35
51249;BME280;39642;47.556;18.728;2022-08-04T11:43:52;99681.47;;;27.12;37.43
51249;BME280;39642;47.556;18.728;2022-08-04T11:46:25;99679.22;;;27.17;37.29
51249;BME280;39642;47.556;18.728;2022-08-04T11:49:01;99677.03;;;27.23;37.20
51249;BME280;39642;47.556;18.728;2022-08-04T11:51:31;99674.38;;;27.23;37.34
51249;BME280;39642;47.556;18.728;2022-08-04T11:53:58;99666.56;;;27.19;37.43
51249;BME280;39642;47.556;18.728;2022-08-04T11:56:25;99671.34;;;27.16;37.51
51249;BME280;39642;47.556;18.728;2022-08-04T11:58:53;99663.75;;;27.11;37.60
51249;BME280;39642;47.556;18.728;2022-08-04T12:04:01;99663.03;;;27.09;37.79
51249;BME280;39642;47.556;18.728;2022-08-04T12:06:55;99659.66;;;27.17;37.41
51249;BME280;39642;47.556;18.728;2022-08-04T12:09:44;99651.84;;;27.25;37.19
51249;BME280;39642;47.556;18.728;2022-08-04T12:14:48;99648.47;;;27.33;36.85
51249;BME280;39642;47.556;18.728;2022-08-04T12:17:30;99642.19;;;27.34;36.60
51249;BME280;39642;47.556;18.728;2022-08-04T12:20:01;99642.87;;;27.36;36.37
51249;BME280;39642;47.556;18.728;2022-08-04T12:22:43;99640.75;;;27.39;36.29
51249;BME280;39642;47.556;18.728;2022-08-04T12:25:34;99627.53;;;27.38;36.14
51249;BME280;39642;47.556;18.728;2022-08-04T12:28:10;99627.81;;;27.35;36.38
51249;BME280;39642;47.556;18.728;2022-08-04T12:30:45;99629.22;;;27.29;37.18
51249;BME280;39642;47.556;18.728;2022-08-04T12:33:28;99638.50;;;27.25;37.34
51249;BME280;39642;47.556;18.728;2022-08-04T12:35:57;99628.31;;;27.19;37.26
51249;BME280;39642;47.556;18.728;2022-08-04T12:38:26;99625.91;;;27.16;37.42
51249;BME280;39642;47.556;18.728;2022-08-04T12:40:56;99625.22;;;27.14;37.50
51249;BME280;39642;47.556;18.728;2022-08-04T12:43:33;99628.84;;;27.13;37.39
51249;BME280;39642;47.556;18.728;2022-08-04T12:46:03;99627.03;;;27.13;37.43
51249;BME280;39642;47.556;18.728;2022-08-04T12:48:31;99624.22;;;27.15;37.09
51249;BME280;39642;47.556;18.728;2022-08-04T12:50:58;99619.44;;;27.18;36.87
51249;BME280;39642;47.556;18.728;2022-08-04T12:53:35;99620.19;;;27.20;37.00
51249;BME280;39642;47.556;18.728;2022-08-04T12:56:03;99615.78;;;27.19;36.83
51249;BME280;39642;47.556;18.728;2022-08-04T12:58:36;99612.28;;;27.19;36.89
51249;BME280;39642;47.556;18.728;2022-08-04T13:01:05;99622.00;;;27.20;37.07
51249;BME280;39642;47.556;18.728;2022-08-04T13:03:44;99609.34;;;27.22;36.93
51249;BME280;39642;47.556;18.728;2022-08-04T13:06:14;99615.84;;;27.29;36.58
51249;BME280;39642;47.556;18.728;2022-08-04T13:08:44;99616.16;;;27.36;36.35
51249;BME280;39642;47.556;18.728;2022-08-04T13:11:11;99616.69;;;27.39;36.10
51249;BME280;39642;47.556;18.728;2022-08-04T13:13:38;99601.34;;;27.41;36.16
51249;BME280;39642;47.556;18.728;2022-08-04T13:16:07;99598.97;;;27.38;35.95
51249;BME280;39642;47.556;18.728;2022-08-04T13:18:36;99604.31;;;27.38;35.95
51249;BME280;39642;47.556;18.728;2022-08-04T13:23:43;99597.44;;;27.46;35.54
51249;BME280;39642;47.556;18.728;2022-08-04T13:26:15;99596.31;;;27.48;35.43
51249;BME280;39642;47.556;18.728;2022-08-04T13:28:49;99592.50;;;27.51;35.05
51249;BME280;39642;47.556;18.728;2022-08-04T13:31:20;99596.72;;;27.53;34.81
51249;BME280;39642;47.556;18.728;2022-08-04T13:33:53;99592.91;;;27.56;34.54
51249;BME280;39642;47.556;18.728;2022-08-04T13:36:24;99587.44;;;27.57;34.39
51249;BME280;39642;47.556;18.728;2022-08-04T13:38:54;99581.13;;;27.58;33.99
51249;BME280;39642;47.556;18.728;2022-08-04T13:41:21;99581.13;;;27.58;34.09
51249;BME280;39642;47.556;18.728;2022-08-04T13:43:53;99574.06;;;27.57;34.35
51249;BME280;39642;47.556;18.728;2022-08-04T13:46:23;99580.84;;;27.52;36.19
51249;BME280;39642;47.556;18.728;2022-08-04T13:48:51;99573.50;;;27.44;35.72
51249;BME280;39642;47.556;18.728;2022-08-04T13:51:19;99577.59;;;27.38;35.55
51249;BME280;39642;47.556;18.728;2022-08-04T13:53:57;99570.53;;;27.37;35.97
51249;BME280;39642;47.556;18.728;2022-08-04T13:56:30;99564.47;;;27.35;35.61
51249;BME280;39642;47.556;18.728;2022-08-04T13:58:59;99564.47;;;27.35;35.75
51249;BME280;39642;47.556;18.728;2022-08-04T14:01:27;99565.47;;;27.34;36.58
51249;BME280;39642;47.556;18.728;2022-08-04T14:04:02;99564.75;;;27.32;36.81
51249;BME280;39642;47.556;18.728;2022-08-04T14:06:50;99562.38;;;27.29;37.12
51249;BME280;39642;47.556;18.728;2022-08-04T14:09:20;99557.47;;;27.25;36.86
51249;BME280;39642;47.556;18.728;2022-08-04T14:11:50;99558.28;;;27.25;36.79
51249;BME280;39642;47.556;18.728;2022-08-04T14:14:28;99548.84;;;27.31;36.49
51249;BME280;39642;47.556;18.728;2022-08-04T14:17:10;99539.28;;;27.38;36.16
51249;BME280;39642;47.556;18.728;2022-08-04T14:19:56;99542.25;;;27.45;35.62
51249;BME280;39642;47.556;18.728;2022-08-04T14:25:13;99547.44;;;27.56;35.01
51249;BME280;39642;47.556;18.728;2022-08-04T14:27:41;99546.47;;;27.57;34.89
51249;BME280;39642;47.556;18.728;2022-08-04T14:30:36;99542.81;;;27.58;34.87
51249;BME280;39642;47.556;18.728;2022-08-04T14:33:10;99537.44;;;27.58;34.87
51249;BME280;39642;47.556;18.728;2022-08-04T14:35:37;99536.47;;;27.59;34.61
51249;BME280;39642;47.556;18.728;2022-08-04T14:38:06;99535.47;;;27.60;34.41
51249;BME280;39642;47.556;18.728;2022-08-04T14:40:34;99541.53;;;27.62;34.40
51249;BME280;39642;47.556;18.728;2022-08-04T14:43:02;99531.53;;;27.64;34.37
51249;BME280;39642;47.556;18.728;2022-08-04T14:45:29;99543.25;;;27.63;34.41
51249;BME280;39642;47.556;18.728;2022-08-04T14:47:55;99528.87;;;27.64;34.26
51249;BME280;39642;47.556;18.728;2022-08-04T14:50:33;99534.63;;;27.69;33.97
51249;BME280;39642;47.556;18.728;2022-08-04T14:53:07;99527.31;;;27.71;34.13
51249;BME280;39642;47.556;18.728;2022-08-04T14:55:34;99528.13;;;27.72;34.55
51249;BME280;39642;47.556;18.728;2022-08-04T14:58:00;99529.44;;;27.68;35.38
51249;BME280;39642;47.556;18.728;2022-08-04T15:00:32;99526.50;;;27.61;36.10
51249;BME280;39642;47.556;18.728;2022-08-04T15:03:05;99526.06;;;27.56;35.48
51249;BME280;39642;47.556;18.728;2022-08-04T15:05:34;99526.50;;;27.61;35.22
51249;BME280;39642;47.556;18.728;2022-08-04T15:08:00;99534.22;;;27.64;35.06
51249;BME280;39642;47.556;18.728;2022-08-04T15:10:26;99531.25;;;27.67;34.78
51249;BME280;39642;47.556;18.728;2022-08-04T15:12:53;99524.94;;;27.68;34.67
51249;BME280;39642;47.556;18.728;2022-08-04T15:15:20;99525.75;;;27.69;34.69
51249;BME280;39642;47.556;18.728;2022-08-04T15:17:47;99528.31;;;27.70;34.48
51249;BME280;39642;47.556;18.728;2022-08-04T15:20:14;99527.16;;;27.73;34.48
51249;BME280;39642;47.556;18.728;2022-08-04T15:22:42;99526.75;;;27.77;34.30
51249;BME280;39642;47.556;18.728;2022-08-04T15:25:08;99519.28;;;27.81;34.18
51249;BME280;39642;47.556;18.728;2022-08-04T15:27:37;99524.62;;;27.81;34.57
51249;BME280;39642;47.556;18.728;2022-08-04T15:30:08;99517.19;;;27.75;34.82
51249;BME280;39642;47.556;18.728;2022-08-04T15:32:38;99516.59;;;27.71;35.38
51249;BME280;39642;47.556;18.728;2022-08-04T15:35:09;99521.53;;;27.66;35.36
51249;BME280;39642;47.556;18.728;2022-08-04T15:40:17;99515.91;;;27.69;35.16
51249;BME280;39642;47.556;18.728;2022-08-04T15:45:50;99519.16;;;27.73;34.94
51249;BME280;39642;47.556;18.728;2022-08-04T15:53:20;99506.75;;;27.81;34.28
51249;BME280;39642;47.556;18.728;2022-08-04T15:55:46;99505.75;;;27.82;34.24
51249;BME280;39642;47.556;18.728;2022-08-04T15:58:13;99503.91;;;27.83;34.10
51249;BME280;39642;47.556;18.728;2022-08-04T16:06:00;99499.16;;;27.77;34.37
51249;BME280;39642;47.556;18.728;2022-08-04T16:08:26;99502.97;;;27.74;34.19
51249;BME280;39642;47.556;18.728;2022-08-04T16:10:53;99496.59;;;27.75;34.12
51249;BME280;39642;47.556;18.728;2022-08-04T16:13:20;99498.44;;;27.75;34.61
51249;BME280;39642;47.556;18.728;2022-08-04T16:15:56;99495.38;;;27.70;34.95
51249;BME280;39642;47.556;18.728;2022-08-04T16:20:56;99500.84;;;27.68;34.87
51249;BME280;39642;47.556;18.728;2022-08-04T16:23:46;99496.63;;;27.66;35.30
51249;BME280;39642;47.556;18.728;2022-08-04T16:26:59;99491.84;;;27.59;35.56
51249;BME280;39642;47.556;18.728;2022-08-04T16:29:30;99491.44;;;27.54;35.77
51249;BME280;39642;47.556;18.728;2022-08-04T16:34:39;99490.16;;;27.49;35.80
51249;BME280;39642;47.556;18.728;2022-08-04T16:37:08;99486.53;;;27.50;35.50
51249;BME280;39642;47.556;18.728;2022-08-04T16:39:34;99485.53;;;27.51;35.49
51249;BME280;39642;47.556;18.728;2022-08-04T16:45:00;99490.31;;;27.57;35.06
51249;BME280;39642;47.556;18.728;2022-08-04T16:50:14;99483.41;;;27.64;34.71
51249;BME280;39642;47.556;18.728;2022-08-04T16:52:42;99478.88;;;27.65;34.69
51249;BME280;39642;47.556;18.728;2022-08-04T16:55:09;99478.19;;;27.62;34.68
51249;BME280;39642;47.556;18.728;2022-08-04T16:57:37;99478.19;;;27.62;34.68
51249;BME280;39642;47.556;18.728;2022-08-04T17:00:04;99485.38;;;27.62;34.99